sensor_id;sensor_type;location;lat;lon;timestamp;temperature;humidity
74101;DHT22;62462;52.530;21.682;2023-04-15T00:02:16;13.00;65.60
74101;DHT22;62462;52.530;21.682;2023-04-15T00:04:46;13.00;65.60
74101;DHT22;62462;52.530;21.682;2023-04-15T00:07:13;13.00;65.70
74101;DHT22;62462;52.530;21.682;2023-04-15T00:09:41;13.00;65.70
74101;DHT22;62462;52.530;21.682;2023-04-15T00:12:07;13.00;65.70
74101;DHT22;62462;52.530;21.682;2023-04-15T00:14:34;13.00;65.60
74101;DHT22;62462;52.530;21.682;2023-04-15T00:17:01;13.10;65.60
74101;DHT22;62462;52.530;21.682;2023-04-15T00:19:28;13.10;65.60
74101;DHT22;62462;52.530;21.682;2023-04-15T00:21:54;13.10;65.60
74101;DHT22;62462;52.530;21.682;2023-04-15T00:24:19;13.10;65.50
74101;DHT22;62462;52.530;21.682;2023-04-15T00:26:46;13.10;65.50
74101;DHT22;62462;52.530;21.682;2023-04-15T00:29:12;13.10;65.50
74101;DHT22;62462;52.530;21.682;2023-04-15T00:31:37;13.00;65.50
74101;DHT22;62462;52.530;21.682;2023-04-15T00:34:03;13.00;65.60
74101;DHT22;62462;52.530;21.682;2023-04-15T00:36:29;13.00;65.60
74101;DHT22;62462;52.530;21.682;2023-04-15T00:38:56;13.00;65.70
74101;DHT22;62462;52.530;21.682;2023-04-15T00:41:22;13.00;65.90
74101;DHT22;62462;52.530;21.682;2023-04-15T00:43:47;13.00;65.90
74101;DHT22;62462;52.530;21.682;2023-04-15T00:46:15;13.00;65.90
74101;DHT22;62462;52.530;21.682;2023-04-15T00:48:42;13.00;65.90
74101;DHT22;62462;52.530;21.682;2023-04-15T00:51:08;13.00;65.80
74101;DHT22;62462;52.530;21.682;2023-04-15T00:53:34;13.00;65.90
74101;DHT22;62462;52.530;21.682;2023-04-15T00:56:00;13.00;65.80
74101;DHT22;62462;52.530;21.682;2023-04-15T00:58:25;13.00;65.80
74101;DHT22;62462;52.530;21.682;2023-04-15T01:00:53;13.00;65.90
74101;DHT22;62462;52.530;21.682;2023-04-15T01:03:19;13.00;65.90
74101;DHT22;62462;52.530;21.682;2023-04-15T01:05:45;13.00;65.80
74101;DHT22;62462;52.530;21.682;2023-04-15T01:08:11;13.00;65.80
74101;DHT22;62462;52.530;21.682;2023-04-15T01:10:38;13.00;65.80
74101;DHT22;62462;52.530;21.682;2023-04-15T01:13:04;13.00;65.90
74101;DHT22;62462;52.530;21.682;2023-04-15T01:15:30;13.00;65.80
74101;DHT22;62462;52.530;21.682;2023-04-15T01:17:58;13.00;65.90
74101;DHT22;62462;52.530;21.682;2023-04-15T01:20:23;13.00;65.90
74101;DHT22;62462;52.530;21.682;2023-04-15T01:22:49;13.00;65.90
74101;DHT22;62462;52.530;21.682;2023-04-15T01:25:24;13.00;66.00
74101;DHT22;62462;52.530;21.682;2023-04-15T01:27:51;13.00;66.00
74101;DHT22;62462;52.530;21.682;2023-04-15T01:30:17;13.00;66.00
74101;DHT22;62462;52.530;21.682;2023-04-15T01:32:43;13.00;66.00
74101;DHT22;62462;52.530;21.682;2023-04-15T01:35:08;13.00;66.00
74101;DHT22;62462;52.530;21.682;2023-04-15T01:37:35;13.00;66.00
74101;DHT22;62462;52.530;21.682;2023-04-15T01:40:02;13.00;66.10
74101;DHT22;62462;52.530;21.682;2023-04-15T01:42:27;13.00;66.00
74101;DHT22;62462;52.530;21.682;2023-04-15T01:44:53;13.00;66.20
74101;DHT22;62462;52.530;21.682;2023-04-15T01:47:19;13.00;66.40
74101;DHT22;62462;52.530;21.682;2023-04-15T01:49:45;12.90;67.30
74101;DHT22;62462;52.530;21.682;2023-04-15T01:52:11;13.00;66.50
74101;DHT22;62462;52.530;21.682;2023-04-15T01:54:36;13.00;66.40
74101;DHT22;62462;52.530;21.682;2023-04-15T01:57:02;13.00;66.40
74101;DHT22;62462;52.530;21.682;2023-04-15T01:59:29;13.00;66.60
74101;DHT22;62462;52.530;21.682;2023-04-15T02:01:55;13.00;66.50
74101;DHT22;62462;52.530;21.682;2023-04-15T02:04:21;13.00;66.60
74101;DHT22;62462;52.530;21.682;2023-04-15T02:06:48;13.00;66.50
74101;DHT22;62462;52.530;21.682;2023-04-15T02:09:13;13.00;66.50
74101;DHT22;62462;52.530;21.682;2023-04-15T02:11:39;13.00;66.70
74101;DHT22;62462;52.530;21.682;2023-04-15T02:14:05;12.90;66.80
74101;DHT22;62462;52.530;21.682;2023-04-15T02:16:31;12.90;66.90
74101;DHT22;62462;52.530;21.682;2023-04-15T02:18:58;12.90;66.90
74101;DHT22;62462;52.530;21.682;2023-04-15T02:21:25;12.90;67.10
74101;DHT22;62462;52.530;21.682;2023-04-15T02:23:51;12.90;67.20
74101;DHT22;62462;52.530;21.682;2023-04-15T02:26:18;12.90;67.20
74101;DHT22;62462;52.530;21.682;2023-04-15T02:28:45;12.90;67.20
74101;DHT22;62462;52.530;21.682;2023-04-15T02:31:11;12.90;67.30
74101;DHT22;62462;52.530;21.682;2023-04-15T02:33:37;12.90;67.40
74101;DHT22;62462;52.530;21.682;2023-04-15T02:36:03;12.90;67.50
74101;DHT22;62462;52.530;21.682;2023-04-15T02:38:28;12.90;67.70
74101;DHT22;62462;52.530;21.682;2023-04-15T02:40:56;12.80;67.70
74101;DHT22;62462;52.530;21.682;2023-04-15T02:43:22;12.90;67.70
74101;DHT22;62462;52.530;21.682;2023-04-15T02:45:48;12.90;67.80
74101;DHT22;62462;52.530;21.682;2023-04-15T02:48:14;12.80;67.80
74101;DHT22;62462;52.530;21.682;2023-04-15T02:50:42;12.80;67.90
74101;DHT22;62462;52.530;21.682;2023-04-15T02:53:08;12.80;68.10
74101;DHT22;62462;52.530;21.682;2023-04-15T02:55:33;12.80;68.10
74101;DHT22;62462;52.530;21.682;2023-04-15T02:57:59;12.80;68.30
74101;DHT22;62462;52.530;21.682;2023-04-15T03:00:26;12.80;69.20
74101;DHT22;62462;52.530;21.682;2023-04-15T03:03:03;12.80;68.60
74101;DHT22;62462;52.530;21.682;2023-04-15T03:05:29;12.80;68.80
74101;DHT22;62462;52.530;21.682;2023-04-15T03:07:55;12.70;68.80
74101;DHT22;62462;52.530;21.682;2023-04-15T03:10:21;12.80;68.90
74101;DHT22;62462;52.530;21.682;2023-04-15T03:12:47;12.70;68.90
74101;DHT22;62462;52.530;21.682;2023-04-15T03:15:13;12.70;69.00
74101;DHT22;62462;52.530;21.682;2023-04-15T03:17:38;12.70;69.00
74101;DHT22;62462;52.530;21.682;2023-04-15T03:20:05;12.70;69.10
74101;DHT22;62462;52.530;21.682;2023-04-15T03:22:31;12.70;69.10
74101;DHT22;62462;52.530;21.682;2023-04-15T03:24:57;12.70;69.00
74101;DHT22;62462;52.530;21.682;2023-04-15T03:27:23;12.70;69.10
74101;DHT22;62462;52.530;21.682;2023-04-15T03:29:49;12.70;69.10
74101;DHT22;62462;52.530;21.682;2023-04-15T03:32:15;12.70;69.10
74101;DHT22;62462;52.530;21.682;2023-04-15T03:34:41;12.70;69.10
74101;DHT22;62462;52.530;21.682;2023-04-15T03:37:07;12.70;69.30
74101;DHT22;62462;52.530;21.682;2023-04-15T03:39:33;12.70;69.40
74101;DHT22;62462;52.530;21.682;2023-04-15T03:41:59;12.70;69.40
74101;DHT22;62462;52.530;21.682;2023-04-15T03:44:26;12.70;69.60
74101;DHT22;62462;52.530;21.682;2023-04-15T03:46:52;12.70;69.50
74101;DHT22;62462;52.530;21.682;2023-04-15T03:49:18;12.70;69.60
74101;DHT22;62462;52.530;21.682;2023-04-15T03:51:44;12.70;69.60
74101;DHT22;62462;52.530;21.682;2023-04-15T03:54:10;12.60;69.60
74101;DHT22;62462;52.530;21.682;2023-04-15T03:56:37;12.60;69.50
74101;DHT22;62462;52.530;21.682;2023-04-15T03:59:03;12.60;69.40
74101;DHT22;62462;52.530;21.682;2023-04-15T04:01:28;12.70;69.80
74101;DHT22;62462;52.530;21.682;2023-04-15T04:03:54;12.60;69.60
74101;DHT22;62462;52.530;21.682;2023-04-15T04:06:20;12.70;69.70
74101;DHT22;62462;52.530;21.682;2023-04-15T04:08:46;12.60;69.90
74101;DHT22;62462;52.530;21.682;2023-04-15T04:11:11;12.60;70.00
74101;DHT22;62462;52.530;21.682;2023-04-15T04:13:37;12.60;70.10
74101;DHT22;62462;52.530;21.682;2023-04-15T04:16:03;12.60;70.30
74101;DHT22;62462;52.530;21.682;2023-04-15T04:18:32;12.60;70.50
74101;DHT22;62462;52.530;21.682;2023-04-15T04:20:58;12.60;70.90
74101;DHT22;62462;52.530;21.682;2023-04-15T04:23:25;12.50;71.10
74101;DHT22;62462;52.530;21.682;2023-04-15T04:25:50;12.50;71.10
74101;DHT22;62462;52.530;21.682;2023-04-15T04:28:17;12.50;71.70
74101;DHT22;62462;52.530;21.682;2023-04-15T04:30:43;12.50;71.80
74101;DHT22;62462;52.530;21.682;2023-04-15T04:33:08;12.50;72.00
74101;DHT22;62462;52.530;21.682;2023-04-15T04:35:34;12.40;71.90
74101;DHT22;62462;52.530;21.682;2023-04-15T04:38:02;12.40;72.10
74101;DHT22;62462;52.530;21.682;2023-04-15T04:40:28;12.40;72.10
74101;DHT22;62462;52.530;21.682;2023-04-15T04:42:54;12.40;72.30
74101;DHT22;62462;52.530;21.682;2023-04-15T04:45:20;12.40;72.50
74101;DHT22;62462;52.530;21.682;2023-04-15T04:47:45;12.40;72.50
74101;DHT22;62462;52.530;21.682;2023-04-15T04:50:12;12.40;72.50
74101;DHT22;62462;52.530;21.682;2023-04-15T04:52:38;12.40;72.50
74101;DHT22;62462;52.530;21.682;2023-04-15T04:55:04;12.40;72.90
74101;DHT22;62462;52.530;21.682;2023-04-15T04:57:30;12.40;72.80
74101;DHT22;62462;52.530;21.682;2023-04-15T04:59:55;12.30;72.80
74101;DHT22;62462;52.530;21.682;2023-04-15T05:02:21;12.30;72.90
74101;DHT22;62462;52.530;21.682;2023-04-15T05:04:47;12.30;73.10
74101;DHT22;62462;52.530;21.682;2023-04-15T05:07:14;12.30;73.30
74101;DHT22;62462;52.530;21.682;2023-04-15T05:09:40;12.30;73.50
74101;DHT22;62462;52.530;21.682;2023-04-15T05:12:06;12.30;73.80
74101;DHT22;62462;52.530;21.682;2023-04-15T05:14:33;12.30;73.80
74101;DHT22;62462;52.530;21.682;2023-04-15T05:16:59;12.20;74.10
74101;DHT22;62462;52.530;21.682;2023-04-15T05:19:25;12.20;74.30
74101;DHT22;62462;52.530;21.682;2023-04-15T05:21:50;12.20;74.70
74101;DHT22;62462;52.530;21.682;2023-04-15T05:24:16;12.10;74.50
74101;DHT22;62462;52.530;21.682;2023-04-15T05:26:42;12.20;74.70
74101;DHT22;62462;52.530;21.682;2023-04-15T05:29:08;12.20;74.80
74101;DHT22;62462;52.530;21.682;2023-04-15T05:31:34;12.20;75.00
74101;DHT22;62462;52.530;21.682;2023-04-15T05:34:00;12.20;75.10
74101;DHT22;62462;52.530;21.682;2023-04-15T05:36:26;12.10;75.20
74101;DHT22;62462;52.530;21.682;2023-04-15T05:38:52;12.10;75.40
74101;DHT22;62462;52.530;21.682;2023-04-15T05:41:17;12.10;75.30
74101;DHT22;62462;52.530;21.682;2023-04-15T05:43:43;12.20;75.80
74101;DHT22;62462;52.530;21.682;2023-04-15T05:46:09;12.20;75.60
74101;DHT22;62462;52.530;21.682;2023-04-15T05:48:34;12.20;75.50
74101;DHT22;62462;52.530;21.682;2023-04-15T05:51:00;12.20;75.70
74101;DHT22;62462;52.530;21.682;2023-04-15T05:53:26;12.20;75.90
74101;DHT22;62462;52.530;21.682;2023-04-15T05:55:51;12.20;75.80
74101;DHT22;62462;52.530;21.682;2023-04-15T05:58:17;12.20;75.90
74101;DHT22;62462;52.530;21.682;2023-04-15T06:00:43;12.20;76.10
74101;DHT22;62462;52.530;21.682;2023-04-15T06:03:09;12.10;76.20
74101;DHT22;62462;52.530;21.682;2023-04-15T06:05:36;12.10;76.20
74101;DHT22;62462;52.530;21.682;2023-04-15T06:08:02;12.10;76.50
74101;DHT22;62462;52.530;21.682;2023-04-15T06:10:27;12.00;76.60
74101;DHT22;62462;52.530;21.682;2023-04-15T06:12:53;12.00;77.00
74101;DHT22;62462;52.530;21.682;2023-04-15T06:15:19;12.00;77.10
74101;DHT22;62462;52.530;21.682;2023-04-15T06:17:44;12.00;77.30
74101;DHT22;62462;52.530;21.682;2023-04-15T06:20:11;12.00;77.50
74101;DHT22;62462;52.530;21.682;2023-04-15T06:22:37;12.00;77.40
74101;DHT22;62462;52.530;21.682;2023-04-15T06:25:06;12.00;77.30
74101;DHT22;62462;52.530;21.682;2023-04-15T06:27:33;12.00;77.20
74101;DHT22;62462;52.530;21.682;2023-04-15T06:29:59;12.00;77.40
74101;DHT22;62462;52.530;21.682;2023-04-15T06:32:25;12.00;77.30
74101;DHT22;62462;52.530;21.682;2023-04-15T06:34:51;12.10;77.20
74101;DHT22;62462;52.530;21.682;2023-04-15T06:37:17;12.00;77.30
74101;DHT22;62462;52.530;21.682;2023-04-15T06:39:42;12.10;77.50
74101;DHT22;62462;52.530;21.682;2023-04-15T06:42:10;12.00;77.50
74101;DHT22;62462;52.530;21.682;2023-04-15T06:44:36;12.00;77.70
74101;DHT22;62462;52.530;21.682;2023-04-15T06:47:02;11.90;77.60
74101;DHT22;62462;52.530;21.682;2023-04-15T06:49:28;12.00;78.00
74101;DHT22;62462;52.530;21.682;2023-04-15T06:51:54;12.00;77.90
74101;DHT22;62462;52.530;21.682;2023-04-15T06:54:20;11.90;78.00
74101;DHT22;62462;52.530;21.682;2023-04-15T06:56:45;11.90;78.10
74101;DHT22;62462;52.530;21.682;2023-04-15T06:59:12;11.90;78.20
74101;DHT22;62462;52.530;21.682;2023-04-15T07:01:40;11.90;78.10
74101;DHT22;62462;52.530;21.682;2023-04-15T07:04:06;11.90;77.80
74101;DHT22;62462;52.530;21.682;2023-04-15T07:06:32;12.00;77.80
74101;DHT22;62462;52.530;21.682;2023-04-15T07:08:58;12.00;78.00
74101;DHT22;62462;52.530;21.682;2023-04-15T07:11:25;11.90;78.00
74101;DHT22;62462;52.530;21.682;2023-04-15T07:13:50;11.90;78.10
74101;DHT22;62462;52.530;21.682;2023-04-15T07:16:17;11.90;78.40
74101;DHT22;62462;52.530;21.682;2023-04-15T07:18:42;11.90;78.10
74101;DHT22;62462;52.530;21.682;2023-04-15T07:21:08;12.00;78.20
74101;DHT22;62462;52.530;21.682;2023-04-15T07:23:34;12.00;78.40
74101;DHT22;62462;52.530;21.682;2023-04-15T07:26:00;11.90;78.30
74101;DHT22;62462;52.530;21.682;2023-04-15T07:28:26;11.90;78.50
74101;DHT22;62462;52.530;21.682;2023-04-15T07:30:52;11.90;78.60
74101;DHT22;62462;52.530;21.682;2023-04-15T07:33:17;12.00;78.30
74101;DHT22;62462;52.530;21.682;2023-04-15T07:35:43;12.00;78.00
74101;DHT22;62462;52.530;21.682;2023-04-15T07:38:09;12.00;78.20
74101;DHT22;62462;52.530;21.682;2023-04-15T07:40:38;12.00;78.00
74101;DHT22;62462;52.530;21.682;2023-04-15T07:43:04;12.00;77.90
74101;DHT22;62462;52.530;21.682;2023-04-15T07:45:30;12.10;77.90
74101;DHT22;62462;52.530;21.682;2023-04-15T07:47:56;12.10;77.70
74101;DHT22;62462;52.530;21.682;2023-04-15T07:50:22;12.10;77.70
74101;DHT22;62462;52.530;21.682;2023-04-15T07:52:49;12.10;77.90
74101;DHT22;62462;52.530;21.682;2023-04-15T07:55:16;12.10;77.90
74101;DHT22;62462;52.530;21.682;2023-04-15T07:57:45;12.10;78.10
74101;DHT22;62462;52.530;21.682;2023-04-15T08:00:12;12.00;78.20
74101;DHT22;62462;52.530;21.682;2023-04-15T08:02:38;12.00;78.30
74101;DHT22;62462;52.530;21.682;2023-04-15T08:05:04;12.00;78.80
74101;DHT22;62462;52.530;21.682;2023-04-15T08:07:30;12.00;78.60
74101;DHT22;62462;52.530;21.682;2023-04-15T08:09:56;12.00;78.50
74101;DHT22;62462;52.530;21.682;2023-04-15T08:12:22;12.10;78.30
74101;DHT22;62462;52.530;21.682;2023-04-15T08:14:49;12.10;78.20
74101;DHT22;62462;52.530;21.682;2023-04-15T08:17:15;12.20;78.10
74101;DHT22;62462;52.530;21.682;2023-04-15T08:19:41;12.20;78.30
74101;DHT22;62462;52.530;21.682;2023-04-15T08:22:07;12.20;78.40
74101;DHT22;62462;52.530;21.682;2023-04-15T08:24:33;12.20;78.30
74101;DHT22;62462;52.530;21.682;2023-04-15T08:26:59;12.20;78.60
74101;DHT22;62462;52.530;21.682;2023-04-15T08:29:28;12.20;78.40
74101;DHT22;62462;52.530;21.682;2023-04-15T08:31:54;12.20;78.50
74101;DHT22;62462;52.530;21.682;2023-04-15T08:34:20;12.20;78.60
74101;DHT22;62462;52.530;21.682;2023-04-15T08:36:45;12.20;78.40
74101;DHT22;62462;52.530;21.682;2023-04-15T08:42:16;12.10;78.90
74101;DHT22;62462;52.530;21.682;2023-04-15T08:44:45;12.10;78.90
74101;DHT22;62462;52.530;21.682;2023-04-15T08:47:13;12.10;79.00
74101;DHT22;62462;52.530;21.682;2023-04-15T08:49:42;12.20;78.90
74101;DHT22;62462;52.530;21.682;2023-04-15T08:52:08;12.30;78.90
74101;DHT22;62462;52.530;21.682;2023-04-15T08:54:35;12.20;78.70
74101;DHT22;62462;52.530;21.682;2023-04-15T08:57:03;12.30;78.60
74101;DHT22;62462;52.530;21.682;2023-04-15T08:59:29;12.30;78.60
74101;DHT22;62462;52.530;21.682;2023-04-15T09:01:56;12.30;78.80
74101;DHT22;62462;52.530;21.682;2023-04-15T09:04:22;12.30;78.70
74101;DHT22;62462;52.530;21.682;2023-04-15T09:06:48;12.30;78.80
74101;DHT22;62462;52.530;21.682;2023-04-15T09:09:14;12.30;78.80
74101;DHT22;62462;52.530;21.682;2023-04-15T09:11:40;12.30;79.00
74101;DHT22;62462;52.530;21.682;2023-04-15T09:14:06;12.30;79.00
74101;DHT22;62462;52.530;21.682;2023-04-15T09:16:56;12.30;78.70
74101;DHT22;62462;52.530;21.682;2023-04-15T09:19:23;12.30;79.00
74101;DHT22;62462;52.530;21.682;2023-04-15T09:21:52;12.30;79.20
74101;DHT22;62462;52.530;21.682;2023-04-15T09:24:18;12.20;79.10
74101;DHT22;62462;52.530;21.682;2023-04-15T09:26:44;12.30;79.30
74101;DHT22;62462;52.530;21.682;2023-04-15T09:29:10;12.20;79.20
74101;DHT22;62462;52.530;21.682;2023-04-15T09:31:40;12.20;79.40
74101;DHT22;62462;52.530;21.682;2023-04-15T09:34:06;12.30;79.60
74101;DHT22;62462;52.530;21.682;2023-04-15T09:36:52;12.30;79.50
74101;DHT22;62462;52.530;21.682;2023-04-15T09:39:18;12.30;79.30
74101;DHT22;62462;52.530;21.682;2023-04-15T09:41:44;12.30;79.20
74101;DHT22;62462;52.530;21.682;2023-04-15T09:44:23;12.30;79.00
74101;DHT22;62462;52.530;21.682;2023-04-15T09:46:49;12.30;79.20
74101;DHT22;62462;52.530;21.682;2023-04-15T09:49:15;12.30;79.10
74101;DHT22;62462;52.530;21.682;2023-04-15T09:51:43;12.30;79.30
74101;DHT22;62462;52.530;21.682;2023-04-15T09:54:09;12.40;79.70
74101;DHT22;62462;52.530;21.682;2023-04-15T09:56:36;12.50;79.50
74101;DHT22;62462;52.530;21.682;2023-04-15T09:59:10;12.60;79.60
74101;DHT22;62462;52.530;21.682;2023-04-15T10:01:37;12.60;79.40
74101;DHT22;62462;52.530;21.682;2023-04-15T10:04:05;12.70;79.00
74101;DHT22;62462;52.530;21.682;2023-04-15T10:06:31;12.70;78.40
74101;DHT22;62462;52.530;21.682;2023-04-15T10:08:58;12.70;78.60
74101;DHT22;62462;52.530;21.682;2023-04-15T10:11:28;12.70;78.40
74101;DHT22;62462;52.530;21.682;2023-04-15T10:13:55;12.80;78.70
74101;DHT22;62462;52.530;21.682;2023-04-15T10:16:24;12.80;78.80
74101;DHT22;62462;52.530;21.682;2023-04-15T10:18:54;12.90;78.50
74101;DHT22;62462;52.530;21.682;2023-04-15T10:21:20;12.90;78.60
74101;DHT22;62462;52.530;21.682;2023-04-15T10:23:48;12.90;78.00
74101;DHT22;62462;52.530;21.682;2023-04-15T10:26:15;13.00;78.00
74101;DHT22;62462;52.530;21.682;2023-04-15T10:28:44;12.90;78.40
74101;DHT22;62462;52.530;21.682;2023-04-15T10:31:12;12.90;78.10
74101;DHT22;62462;52.530;21.682;2023-04-15T10:33:40;13.00;78.60
74101;DHT22;62462;52.530;21.682;2023-04-15T10:36:07;13.00;78.10
74101;DHT22;62462;52.530;21.682;2023-04-15T10:38:40;13.00;78.20
74101;DHT22;62462;52.530;21.682;2023-04-15T10:41:26;13.10;78.10
74101;DHT22;62462;52.530;21.682;2023-04-15T10:43:59;13.00;77.70
74101;DHT22;62462;52.530;21.682;2023-04-15T10:46:38;13.00;77.90
74101;DHT22;62462;52.530;21.682;2023-04-15T10:49:08;13.00;78.20
74101;DHT22;62462;52.530;21.682;2023-04-15T10:51:38;13.00;78.00
74101;DHT22;62462;52.530;21.682;2023-04-15T10:54:15;13.00;77.80
74101;DHT22;62462;52.530;21.682;2023-04-15T10:56:45;13.00;77.90
74101;DHT22;62462;52.530;21.682;2023-04-15T10:59:15;12.90;77.40
74101;DHT22;62462;52.530;21.682;2023-04-15T11:01:53;12.80;77.40
74101;DHT22;62462;52.530;21.682;2023-04-15T11:04:57;12.80;78.10
74101;DHT22;62462;52.530;21.682;2023-04-15T11:12:59;12.80;77.80
74101;DHT22;62462;52.530;21.682;2023-04-15T11:20:37;12.80;78.40
74101;DHT22;62462;52.530;21.682;2023-04-15T11:23:03;12.80;78.30
74101;DHT22;62462;52.530;21.682;2023-04-15T11:25:31;12.90;78.10
74101;DHT22;62462;52.530;21.682;2023-04-15T11:27:59;12.90;78.10
74101;DHT22;62462;52.530;21.682;2023-04-15T11:30:27;13.00;77.70
74101;DHT22;62462;52.530;21.682;2023-04-15T11:32:56;13.10;77.60
74101;DHT22;62462;52.530;21.682;2023-04-15T11:35:22;13.10;77.80
74101;DHT22;62462;52.530;21.682;2023-04-15T11:37:48;13.20;77.50
74101;DHT22;62462;52.530;21.682;2023-04-15T11:40:16;13.20;77.00
74101;DHT22;62462;52.530;21.682;2023-04-15T11:42:45;13.20;77.10
74101;DHT22;62462;52.530;21.682;2023-04-15T11:45:13;13.20;76.60
74101;DHT22;62462;52.530;21.682;2023-04-15T11:47:40;13.20;77.00
74101;DHT22;62462;52.530;21.682;2023-04-15T11:50:19;13.30;76.50
74101;DHT22;62462;52.530;21.682;2023-04-15T11:52:55;13.30;76.20
74101;DHT22;62462;52.530;21.682;2023-04-15T11:55:22;13.30;75.20
74101;DHT22;62462;52.530;21.682;2023-04-15T11:57:50;13.30;74.00
74101;DHT22;62462;52.530;21.682;2023-04-15T12:00:16;13.30;74.50
74101;DHT22;62462;52.530;21.682;2023-04-15T12:02:42;13.40;75.30
74101;DHT22;62462;52.530;21.682;2023-04-15T12:05:08;13.60;75.10
74101;DHT22;62462;52.530;21.682;2023-04-15T12:07:56;13.70;73.30
74101;DHT22;62462;52.530;21.682;2023-04-15T12:10:23;13.90;71.50
74101;DHT22;62462;52.530;21.682;2023-04-15T12:12:51;13.80;70.80
74101;DHT22;62462;52.530;21.682;2023-04-15T12:15:21;13.80;71.80
74101;DHT22;62462;52.530;21.682;2023-04-15T12:17:47;13.70;71.30
74101;DHT22;62462;52.530;21.682;2023-04-15T12:20:13;13.60;72.40
74101;DHT22;62462;52.530;21.682;2023-04-15T12:22:38;13.60;72.20
74101;DHT22;62462;52.530;21.682;2023-04-15T12:25:04;13.60;72.20
74101;DHT22;62462;52.530;21.682;2023-04-15T12:27:30;13.60;72.60
74101;DHT22;62462;52.530;21.682;2023-04-15T12:30:06;13.60;72.40
74101;DHT22;62462;52.530;21.682;2023-04-15T12:32:34;13.60;71.50
74101;DHT22;62462;52.530;21.682;2023-04-15T12:35:00;13.60;69.60
74101;DHT22;62462;52.530;21.682;2023-04-15T12:37:26;13.50;71.00
74101;DHT22;62462;52.530;21.682;2023-04-15T12:39:52;13.60;71.50
74101;DHT22;62462;52.530;21.682;2023-04-15T12:42:19;13.70;71.00
74101;DHT22;62462;52.530;21.682;2023-04-15T12:44:45;13.70;70.70
74101;DHT22;62462;52.530;21.682;2023-04-15T12:47:11;13.70;70.20
74101;DHT22;62462;52.530;21.682;2023-04-15T12:49:37;13.60;70.20
74101;DHT22;62462;52.530;21.682;2023-04-15T12:52:04;13.60;70.50
74101;DHT22;62462;52.530;21.682;2023-04-15T12:54:30;13.60;70.20
74101;DHT22;62462;52.530;21.682;2023-04-15T12:56:57;13.60;70.80
74101;DHT22;62462;52.530;21.682;2023-04-15T12:59:23;13.60;71.50
74101;DHT22;62462;52.530;21.682;2023-04-15T13:01:50;13.60;70.00
74101;DHT22;62462;52.530;21.682;2023-04-15T13:04:16;13.50;70.50
74101;DHT22;62462;52.530;21.682;2023-04-15T13:06:42;13.60;70.60
74101;DHT22;62462;52.530;21.682;2023-04-15T13:09:08;13.50;70.30
74101;DHT22;62462;52.530;21.682;2023-04-15T13:11:34;13.60;70.10
74101;DHT22;62462;52.530;21.682;2023-04-15T13:14:02;13.60;70.80
74101;DHT22;62462;52.530;21.682;2023-04-15T13:16:29;13.60;70.20
74101;DHT22;62462;52.530;21.682;2023-04-15T13:18:55;13.60;70.30
74101;DHT22;62462;52.530;21.682;2023-04-15T13:21:20;13.60;70.10
74101;DHT22;62462;52.530;21.682;2023-04-15T13:23:48;13.60;69.50
74101;DHT22;62462;52.530;21.682;2023-04-15T13:26:16;13.50;69.30
74101;DHT22;62462;52.530;21.682;2023-04-15T13:28:42;13.40;69.00
74101;DHT22;62462;52.530;21.682;2023-04-15T13:31:08;13.30;69.20
74101;DHT22;62462;52.530;21.682;2023-04-15T13:33:35;13.30;70.10
74101;DHT22;62462;52.530;21.682;2023-04-15T13:36:01;13.30;69.90
74101;DHT22;62462;52.530;21.682;2023-04-15T13:38:27;13.30;70.30
74101;DHT22;62462;52.530;21.682;2023-04-15T13:40:52;13.20;70.90
74101;DHT22;62462;52.530;21.682;2023-04-15T13:43:18;13.20;71.20
74101;DHT22;62462;52.530;21.682;2023-04-15T13:45:45;13.10;71.20
74101;DHT22;62462;52.530;21.682;2023-04-15T13:48:11;13.10;71.00
74101;DHT22;62462;52.530;21.682;2023-04-15T13:50:37;13.00;71.20
74101;DHT22;62462;52.530;21.682;2023-04-15T13:53:03;13.00;71.10
74101;DHT22;62462;52.530;21.682;2023-04-15T13:55:29;13.00;71.20
74101;DHT22;62462;52.530;21.682;2023-04-15T13:57:55;12.90;70.80
74101;DHT22;62462;52.530;21.682;2023-04-15T14:00:21;12.90;70.70
74101;DHT22;62462;52.530;21.682;2023-04-15T14:02:47;13.00;71.00
74101;DHT22;62462;52.530;21.682;2023-04-15T14:05:13;13.10;71.00
74101;DHT22;62462;52.530;21.682;2023-04-15T14:07:39;13.00;70.90
74101;DHT22;62462;52.530;21.682;2023-04-15T14:10:05;13.00;70.90
74101;DHT22;62462;52.530;21.682;2023-04-15T14:12:31;13.00;71.10
74101;DHT22;62462;52.530;21.682;2023-04-15T14:14:57;13.00;71.30
74101;DHT22;62462;52.530;21.682;2023-04-15T14:17:23;13.00;71.30
74101;DHT22;62462;52.530;21.682;2023-04-15T14:19:49;13.00;71.30
74101;DHT22;62462;52.530;21.682;2023-04-15T14:22:15;13.00;71.10
74101;DHT22;62462;52.530;21.682;2023-04-15T14:24:43;12.90;70.50
74101;DHT22;62462;52.530;21.682;2023-04-15T14:27:09;12.90;70.20
74101;DHT22;62462;52.530;21.682;2023-04-15T14:29:36;12.80;70.60
74101;DHT22;62462;52.530;21.682;2023-04-15T14:32:03;12.90;71.10
74101;DHT22;62462;52.530;21.682;2023-04-15T14:34:28;12.90;71.40
74101;DHT22;62462;52.530;21.682;2023-04-15T14:36:55;12.90;70.70
74101;DHT22;62462;52.530;21.682;2023-04-15T14:39:21;12.90;70.90
74101;DHT22;62462;52.530;21.682;2023-04-15T14:41:48;12.90;70.70
74101;DHT22;62462;52.530;21.682;2023-04-15T14:44:14;12.90;71.10
74101;DHT22;62462;52.530;21.682;2023-04-15T14:46:40;12.90;71.20
74101;DHT22;62462;52.530;21.682;2023-04-15T14:49:06;12.80;71.20
74101;DHT22;62462;52.530;21.682;2023-04-15T14:51:32;12.80;71.50
74101;DHT22;62462;52.530;21.682;2023-04-15T14:53:58;12.80;71.60
74101;DHT22;62462;52.530;21.682;2023-04-15T14:56:24;12.80;71.20
74101;DHT22;62462;52.530;21.682;2023-04-15T14:58:50;12.80;71.40
74101;DHT22;62462;52.530;21.682;2023-04-15T15:01:18;12.80;71.50
74101;DHT22;62462;52.530;21.682;2023-04-15T15:03:44;12.80;71.80
74101;DHT22;62462;52.530;21.682;2023-04-15T15:06:09;12.80;71.60
74101;DHT22;62462;52.530;21.682;2023-04-15T15:08:35;12.80;71.90
74101;DHT22;62462;52.530;21.682;2023-04-15T15:11:01;12.80;72.00
74101;DHT22;62462;52.530;21.682;2023-04-15T15:13:27;12.80;71.80
74101;DHT22;62462;52.530;21.682;2023-04-15T15:15:53;12.80;71.90
74101;DHT22;62462;52.530;21.682;2023-04-15T15:18:19;12.70;71.80
74101;DHT22;62462;52.530;21.682;2023-04-15T15:20:45;12.60;72.40
74101;DHT22;62462;52.530;21.682;2023-04-15T15:23:11;12.60;72.90
74101;DHT22;62462;52.530;21.682;2023-04-15T15:25:37;12.60;72.80
74101;DHT22;62462;52.530;21.682;2023-04-15T15:28:02;12.60;72.80